createdAt,value
2022-11-27T00:00:01.603Z,55.90
2022-11-27T00:01:01.573Z,58.90
2022-11-27T00:02:01.595Z,48.20
2022-11-27T00:03:01.633Z,48.80
2022-11-27T00:04:01.746Z,49.90
2022-11-27T00:05:01.513Z,52.40
2022-11-27T00:06:01.552Z,49.10
2022-11-27T00:07:01.773Z,49.90
2022-11-27T00:08:01.560Z,50.80
2022-11-27T00:09:01.484Z,52.20
2022-11-27T00:10:02.429Z,48.70
2022-11-27T00:11:01.496Z,50.80
2022-11-27T00:12:02.438Z,49.80
2022-11-27T00:13:01.457Z,54.70
2022-11-27T00:14:02.435Z,51.90
2022-11-27T00:15:01.424Z,48.60
2022-11-27T00:16:01.488Z,50.60
2022-11-27T00:17:01.439Z,52.80
2022-11-27T00:18:01.381Z,48.60
2022-11-27T00:19:01.617Z,52.70
2022-11-27T00:20:01.349Z,45.20
2022-11-27T00:21:01.372Z,51.50
2022-11-27T00:22:01.386Z,43.20
2022-11-27T00:23:01.360Z,48.00
2022-11-27T00:24:01.310Z,51.60
2022-11-27T00:25:01.325Z,47.50
2022-11-27T00:26:01.301Z,50.00
2022-11-27T00:27:01.315Z,43.80
2022-11-27T00:28:01.327Z,50.20
2022-11-27T00:29:01.333Z,49.20
2022-11-27T00:30:01.280Z,50.80
2022-11-27T00:31:01.344Z,45.80
2022-11-27T00:32:01.341Z,47.10
2022-11-27T00:33:01.265Z,46.60
2022-11-27T00:34:01.187Z,50.30
2022-11-27T00:35:01.205Z,48.00
2022-11-27T00:36:01.209Z,45.80
2022-11-27T00:37:01.186Z,48.40
2022-11-27T00:38:01.216Z,46.70
2022-11-27T00:39:01.262Z,44.10
2022-11-27T00:40:02.111Z,48.70
2022-11-27T00:41:01.207Z,44.80
2022-11-27T00:42:01.167Z,51.30
2022-11-27T00:43:01.124Z,48.70
2022-11-27T00:44:01.115Z,43.80
2022-11-27T00:45:01.401Z,47.40
2022-11-27T00:46:01.176Z,48.40
2022-11-27T00:47:01.306Z,44.90
2022-11-27T00:48:01.038Z,46.30
2022-11-27T00:49:01.139Z,47.30
2022-11-27T00:50:01.008Z,48.70
2022-11-27T00:51:01.048Z,41.00
2022-11-27T00:52:01.102Z,43.10
2022-11-27T00:53:01.013Z,45.00
2022-11-27T00:54:01.555Z,48.40
2022-11-27T00:55:01.054Z,40.00
2022-11-27T00:56:00.942Z,44.90
2022-11-27T00:57:00.945Z,50.10
2022-11-27T00:58:00.967Z,41.80
2022-11-27T00:59:00.983Z,47.80
2022-11-27T01:00:00.958Z,48.80
2022-11-27T01:01:00.908Z,45.90
2022-11-27T01:02:00.940Z,47.80
2022-11-27T01:03:00.970Z,51.30
2022-11-27T01:04:00.852Z,40.00
2022-11-27T01:05:00.857Z,42.50
2022-11-27T01:06:00.831Z,48.80
2022-11-27T01:07:00.839Z,45.70
2022-11-27T01:08:00.886Z,46.70
2022-11-27T01:09:00.814Z,46.60
2022-11-27T01:10:00.824Z,42.60
2022-11-27T01:11:00.824Z,43.50
2022-11-27T01:12:00.812Z,47.60
2022-11-27T01:13:00.787Z,45.70
2022-11-27T01:14:00.744Z,47.20
2022-11-27T01:15:00.805Z,45.70
2022-11-27T01:16:00.753Z,46.40
2022-11-27T01:17:00.721Z,50.80
2022-11-27T01:18:00.718Z,45.10
2022-11-27T01:19:00.769Z,43.90
2022-11-27T01:20:00.709Z,41.20
2022-11-27T01:21:00.737Z,41.50
2022-11-27T01:22:00.650Z,50.20
2022-11-27T01:23:00.673Z,47.80
2022-11-27T01:24:00.690Z,43.70
2022-11-27T01:25:00.638Z,43.10
2022-11-27T01:26:00.651Z,47.30
2022-11-27T01:27:00.659Z,39.70
2022-11-27T01:28:00.598Z,45.10
2022-11-27T01:29:00.678Z,42.80
2022-11-27T01:30:00.678Z,42.60
2022-11-27T01:31:00.653Z,40.50
2022-11-27T01:32:00.542Z,38.50
2022-11-27T01:33:00.613Z,46.00
2022-11-27T01:34:00.534Z,40.20
2022-11-27T01:35:00.582Z,52.20
2022-11-27T01:36:00.559Z,43.70
2022-11-27T01:37:00.557Z,44.90
2022-11-27T01:38:00.489Z,45.90
2022-11-27T01:39:00.575Z,44.70
2022-11-27T01:40:00.506Z,40.50
2022-11-27T01:41:00.456Z,44.30
2022-11-27T01:42:00.459Z,44.50
2022-11-27T01:43:00.526Z,36.80
2022-11-27T01:44:00.430Z,41.80
2022-11-27T01:45:00.417Z,41.40
2022-11-27T01:46:00.426Z,41.60
2022-11-27T01:47:00.561Z,40.80
2022-11-27T01:48:00.392Z,39.70
2022-11-27T01:49:00.362Z,44.30
2022-11-27T01:50:00.338Z,38.40
2022-11-27T01:51:00.361Z,43.30
2022-11-27T01:52:00.397Z,37.40
2022-11-27T01:53:00.334Z,38.60
2022-11-27T01:54:00.295Z,38.60
2022-11-27T01:55:00.306Z,35.70
2022-11-27T01:56:00.291Z,37.60
2022-11-27T01:57:00.322Z,40.30
2022-11-27T01:58:00.256Z,38.30
2022-11-27T01:59:00.251Z,43.90
2022-11-27T02:00:00.242Z,41.60
2022-11-27T02:01:00.221Z,37.20
2022-11-27T02:02:00.303Z,34.10
2022-11-27T02:03:00.291Z,41.10
2022-11-27T02:04:00.238Z,36.10
2022-11-27T02:05:00.240Z,41.70
2022-11-27T02:06:00.206Z,40.00
2022-11-27T02:07:00.223Z,32.70
2022-11-27T02:08:00.239Z,35.40
2022-11-27T02:09:00.156Z,39.30
2022-11-27T02:10:00.140Z,34.80
2022-11-27T02:11:00.452Z,34.90
2022-11-27T02:12:00.148Z,38.00
2022-11-27T02:13:00.126Z,34.10
2022-11-27T02:14:00.128Z,37.90
2022-11-27T02:15:00.139Z,35.40
2022-11-27T02:16:00.181Z,34.70
2022-11-27T02:17:00.106Z,30.70
2022-11-27T02:18:00.019Z,32.80
2022-11-27T02:19:00.036Z,34.50
2022-11-27T02:20:00.007Z,31.40
2022-11-27T02:21:00.009Z,31.80
2022-11-27T02:22:00.739Z,31.80
2022-11-27T02:22:59.984Z,33.40
2022-11-27T02:23:59.961Z,34.00
2022-11-27T02:24:59.969Z,30.20
2022-11-27T02:25:59.982Z,30.50
2022-11-27T02:26:59.961Z,33.80
2022-11-27T02:28:00.022Z,34.60
2022-11-27T02:28:59.956Z,30.50
2022-11-27T02:29:59.954Z,33.30
2022-11-27T02:30:59.923Z,28.90
2022-11-27T02:31:59.898Z,28.20
2022-11-27T02:32:59.912Z,29.00
2022-11-27T02:33:59.901Z,34.80
2022-11-27T02:34:59.854Z,29.60
2022-11-27T02:35:59.878Z,29.90
2022-11-27T02:36:59.821Z,27.80
2022-11-27T02:37:59.857Z,28.60
2022-11-27T02:38:59.800Z,32.70
2022-11-27T02:39:59.791Z,28.10
2022-11-27T02:40:59.808Z,32.70
2022-11-27T02:41:59.821Z,28.20
2022-11-27T02:42:59.769Z,29.00
2022-11-27T02:43:59.759Z,32.40
2022-11-27T02:44:59.734Z,32.60
2022-11-27T02:45:59.781Z,32.40
2022-11-27T02:46:59.849Z,28.40
2022-11-27T02:47:59.738Z,32.30
2022-11-27T02:48:59.773Z,29.80
2022-11-27T02:49:59.855Z,28.70
2022-11-27T02:50:59.730Z,29.60
2022-11-27T02:51:59.750Z,32.10
2022-11-27T02:52:59.683Z,29.90
2022-11-27T02:53:59.767Z,27.50
2022-11-27T02:54:59.624Z,26.20
2022-11-27T02:55:59.678Z,31.80
2022-11-27T02:56:59.745Z,30.70
2022-11-27T02:57:59.739Z,31.20
2022-11-27T02:58:59.645Z,30.00
2022-11-27T02:59:59.578Z,26.10
2022-11-27T03:00:59.647Z,29.30
2022-11-27T03:01:59.710Z,26.00
2022-11-27T03:02:59.629Z,32.80
2022-11-27T03:03:59.582Z,30.40
2022-11-27T03:04:59.526Z,25.30
2022-11-27T03:05:59.544Z,29.30
2022-11-27T03:06:59.490Z,30.70
2022-11-27T03:07:59.721Z,28.00
2022-11-27T03:08:59.541Z,30.50
2022-11-27T03:09:59.490Z,26.00
2022-11-27T03:10:59.450Z,30.20
2022-11-27T03:12:00.556Z,30.80
2022-11-27T03:12:59.445Z,29.40
2022-11-27T03:13:59.385Z,28.50
2022-11-27T03:14:59.392Z,27.80
2022-11-27T03:15:59.500Z,28.40
2022-11-27T03:16:59.402Z,28.20
2022-11-27T03:17:59.704Z,28.50
2022-11-27T03:18:59.353Z,31.10
2022-11-27T03:19:59.376Z,28.70
2022-11-27T03:20:59.349Z,30.40
2022-11-27T03:21:59.296Z,31.20
2022-11-27T03:22:59.307Z,28.00
2022-11-27T03:23:59.305Z,30.40
2022-11-27T03:24:59.338Z,30.00
2022-11-27T03:25:59.269Z,31.90
2022-11-27T03:26:59.275Z,28.80
2022-11-27T03:27:59.251Z,30.20
2022-11-27T03:28:59.268Z,28.50
2022-11-27T03:29:59.228Z,28.40
2022-11-27T03:30:59.319Z,28.30
2022-11-27T03:31:59.185Z,28.30
2022-11-27T03:32:59.241Z,29.50
2022-11-27T03:33:59.226Z,30.20
2022-11-27T03:34:59.173Z,29.10
2022-11-27T03:35:59.168Z,32.50
2022-11-27T03:36:59.166Z,30.90
2022-11-27T03:37:59.141Z,31.10
2022-11-27T03:38:59.182Z,30.30
2022-11-27T03:39:59.116Z,29.00
2022-11-27T03:40:59.205Z,30.00
2022-11-27T03:41:59.125Z,33.40
2022-11-27T03:42:59.115Z,27.50
2022-11-27T03:43:59.087Z,27.30
2022-11-27T03:44:59.114Z,31.70
2022-11-27T03:45:59.082Z,32.10
2022-11-27T03:46:59.105Z,28.80
2022-11-27T03:47:59.181Z,27.30
2022-11-27T03:48:59.048Z,27.50
2022-11-27T03:49:59.009Z,28.80
2022-11-27T03:50:59.087Z,27.70
2022-11-27T03:51:59.001Z,28.80
2022-11-27T03:52:59.088Z,26.80
2022-11-27T03:53:58.969Z,31.20
2022-11-27T03:54:58.952Z,27.90
2022-11-27T03:55:58.985Z,25.70
2022-11-27T03:56:58.978Z,34.40
2022-11-27T03:57:58.893Z,24.90
2022-11-27T03:58:58.937Z,30.80
2022-11-27T03:59:58.874Z,27.20
2022-11-27T04:00:59.139Z,25.00
2022-11-27T04:01:58.879Z,31.80
2022-11-27T04:02:58.855Z,29.60
2022-11-27T04:03:58.889Z,27.40
2022-11-27T04:04:58.862Z,26.00
2022-11-27T04:05:58.800Z,24.80
2022-11-27T04:06:58.804Z,25.40
2022-11-27T04:07:58.844Z,25.30
2022-11-27T04:08:58.813Z,30.00
2022-11-27T04:09:58.817Z,29.90
2022-11-27T04:10:58.761Z,26.70
2022-11-27T04:11:58.744Z,25.40
2022-11-27T04:12:58.734Z,32.50
2022-11-27T04:13:58.760Z,25.10
2022-11-27T04:14:58.744Z,25.80
2022-11-27T04:15:58.779Z,27.60
2022-11-27T04:16:58.701Z,28.20
2022-11-27T04:17:58.680Z,27.20
2022-11-27T04:18:58.703Z,23.10
2022-11-27T04:19:58.693Z,26.10
2022-11-27T04:20:58.714Z,24.60
2022-11-27T04:21:58.694Z,25.70
2022-11-27T04:22:58.613Z,28.70
2022-11-27T04:23:58.621Z,25.30
2022-11-27T04:24:58.627Z,28.50
2022-11-27T04:25:58.602Z,23.10
2022-11-27T04:26:58.585Z,23.90
2022-11-27T04:27:58.620Z,32.60
2022-11-27T04:28:58.542Z,23.80
2022-11-27T04:29:58.549Z,23.60
2022-11-27T04:30:58.650Z,26.10
2022-11-27T04:31:58.525Z,31.20
2022-11-27T04:32:58.497Z,24.20
2022-11-27T04:33:58.509Z,27.00
2022-11-27T04:34:58.525Z,27.90
2022-11-27T04:35:58.527Z,22.80
2022-11-27T04:36:58.461Z,23.40
2022-11-27T04:37:58.477Z,26.60
2022-11-27T04:38:58.435Z,26.10
2022-11-27T04:39:58.475Z,22.90
2022-11-27T04:40:58.414Z,24.60
2022-11-27T04:41:58.411Z,22.10
2022-11-27T04:42:58.395Z,27.20
2022-11-27T04:43:58.386Z,25.80
2022-11-27T04:44:58.402Z,24.90
2022-11-27T04:45:58.378Z,26.30
2022-11-27T04:46:58.435Z,27.50
2022-11-27T04:47:58.345Z,23.50
2022-11-27T04:48:58.331Z,23.00
2022-11-27T04:49:58.339Z,24.90
2022-11-27T04:50:58.369Z,23.50
2022-11-27T04:51:58.300Z,21.00
2022-11-27T04:52:58.300Z,24.30
2022-11-27T04:53:58.278Z,23.70
2022-11-27T04:55:00.278Z,26.00
2022-11-27T04:55:58.270Z,22.50
2022-11-27T04:56:58.273Z,24.90
2022-11-27T04:57:58.276Z,24.30
2022-11-27T04:58:58.210Z,23.50
2022-11-27T04:59:58.244Z,22.00
2022-11-27T05:00:58.241Z,22.60
2022-11-27T05:01:58.267Z,23.60
2022-11-27T05:02:58.250Z,22.40
2022-11-27T05:03:58.186Z,24.30
2022-11-27T05:04:58.196Z,22.60
2022-11-27T05:05:58.149Z,23.00
2022-11-27T05:06:58.156Z,24.70
2022-11-27T05:07:58.223Z,21.00
2022-11-27T05:08:58.197Z,25.20
2022-11-27T05:09:58.148Z,22.70
2022-11-27T05:10:58.162Z,22.60
2022-11-27T05:11:58.080Z,20.20
2022-11-27T05:12:58.055Z,22.20
2022-11-27T05:13:58.061Z,26.40
2022-11-27T05:15:01.835Z,24.70
2022-11-27T05:15:58.167Z,23.40
2022-11-27T05:16:58.020Z,22.30
2022-11-27T05:17:58.007Z,20.70
2022-11-27T05:18:58.002Z,20.90
2022-11-27T05:19:58.001Z,22.60
2022-11-27T05:20:58.118Z,27.40
2022-11-27T05:21:58.031Z,21.00
2022-11-27T05:22:57.954Z,20.50
2022-11-27T05:23:57.938Z,22.60
2022-11-27T05:24:57.985Z,20.40
2022-11-27T05:25:57.919Z,18.70
2022-11-27T05:26:57.933Z,20.20
2022-11-27T05:27:57.897Z,21.10
2022-11-27T05:28:57.967Z,20.50
2022-11-27T05:29:57.872Z,20.90
2022-11-27T05:30:57.934Z,18.60
2022-11-27T05:31:57.886Z,19.50
2022-11-27T05:32:57.910Z,25.70
2022-11-27T05:33:58.037Z,22.00
2022-11-27T05:34:57.877Z,22.90
2022-11-27T05:35:57.955Z,20.60
2022-11-27T05:36:57.787Z,19.90
2022-11-27T05:37:57.867Z,21.30
2022-11-27T05:38:57.792Z,23.40
2022-11-27T05:39:57.807Z,20.80
2022-11-27T05:40:57.748Z,21.40
2022-11-27T05:41:57.754Z,18.80
2022-11-27T05:42:57.711Z,21.50
2022-11-27T05:43:57.754Z,20.50
2022-11-27T05:44:58.665Z,22.10
2022-11-27T05:45:57.696Z,21.30
2022-11-27T05:46:57.714Z,21.10
2022-11-27T05:47:57.675Z,22.70
2022-11-27T05:48:57.703Z,19.10
2022-11-27T05:49:57.637Z,17.80
2022-11-27T05:50:58.517Z,20.00
2022-11-27T05:51:57.629Z,19.20
2022-11-27T05:52:57.824Z,19.60
2022-11-27T05:53:57.642Z,18.80
2022-11-27T05:54:57.621Z,20.70
2022-11-27T05:55:57.629Z,17.70
2022-11-27T05:56:57.568Z,18.90
2022-11-27T05:57:57.570Z,19.30
2022-11-27T05:58:57.571Z,16.90
2022-11-27T05:59:57.540Z,18.40
2022-11-27T06:00:57.518Z,16.70
2022-11-27T06:01:57.585Z,17.70
2022-11-27T06:02:57.573Z,16.30
2022-11-27T06:03:57.540Z,18.60
2022-11-27T06:04:57.473Z,18.00
2022-11-27T06:05:57.469Z,14.90
2022-11-27T06:06:57.461Z,19.10
2022-11-27T06:07:57.591Z,18.80
2022-11-27T06:08:57.434Z,17.30
2022-11-27T06:09:57.427Z,19.70
2022-11-27T06:10:57.400Z,20.00
2022-11-27T06:11:57.480Z,21.00
2022-11-27T06:12:57.386Z,20.00
2022-11-27T06:13:57.388Z,17.80
2022-11-27T06:14:57.391Z,15.00
2022-11-27T06:15:57.389Z,18.60
2022-11-27T06:16:57.415Z,18.60
2022-11-27T06:17:57.373Z,18.00
2022-11-27T06:18:57.327Z,18.60
2022-11-27T06:19:57.331Z,17.10
2022-11-27T06:20:57.289Z,20.00
2022-11-27T06:21:57.334Z,19.20
2022-11-27T06:22:57.272Z,17.10
2022-11-27T06:23:57.332Z,18.50
2022-11-27T06:24:57.317Z,16.70
2022-11-27T06:25:57.336Z,17.70
2022-11-27T06:26:57.242Z,17.30
2022-11-27T06:27:57.245Z,16.00
2022-11-27T06:29:03.500Z,17.60
2022-11-27T06:30:03.528Z,16.50
2022-11-27T06:31:03.192Z,16.60
2022-11-27T06:31:57.283Z,20.40
2022-11-27T06:32:57.232Z,17.50
2022-11-27T06:33:57.161Z,17.50
2022-11-27T06:34:57.150Z,17.20
2022-11-27T06:35:57.193Z,15.40
2022-11-27T06:36:57.146Z,17.80
2022-11-27T06:37:57.106Z,17.50
2022-11-27T06:38:57.090Z,20.50
2022-11-27T06:39:57.084Z,17.20
2022-11-27T06:40:57.079Z,18.60
2022-11-27T06:41:57.106Z,17.90
2022-11-27T06:42:57.031Z,17.30
2022-11-27T06:43:57.068Z,17.50
2022-11-27T06:44:57.019Z,18.20
2022-11-27T06:45:57.075Z,15.00
2022-11-27T06:46:57.007Z,18.70
2022-11-27T06:47:57.048Z,16.10
2022-11-27T06:48:57.014Z,15.50
2022-11-27T06:49:56.975Z,18.10
2022-11-27T06:50:56.973Z,20.00
2022-11-27T06:51:56.992Z,19.40
2022-11-27T06:52:56.928Z,17.90
2022-11-27T06:53:56.925Z,20.10
2022-11-27T06:54:56.905Z,18.10
2022-11-27T06:55:56.914Z,21.60
2022-11-27T06:56:56.923Z,18.90
2022-11-27T06:57:56.997Z,19.30
2022-11-27T06:58:56.857Z,19.00
2022-11-27T06:59:56.862Z,16.20
2022-11-27T07:00:56.874Z,17.10
2022-11-27T07:01:56.890Z,16.40
2022-11-27T07:02:56.907Z,16.80
2022-11-27T07:03:57.581Z,16.80
2022-11-27T07:04:56.790Z,16.60
2022-11-27T07:05:56.792Z,18.10
2022-11-27T07:06:56.773Z,18.40
2022-11-27T07:07:56.769Z,21.40
2022-11-27T07:08:56.803Z,17.60
2022-11-27T07:09:56.755Z,17.40
2022-11-27T07:10:56.746Z,14.70
2022-11-27T07:11:56.734Z,17.10
2022-11-27T07:12:56.797Z,19.00
2022-11-27T07:13:56.754Z,17.80
2022-11-27T07:14:58.164Z,14.40
2022-11-27T07:15:56.723Z,18.00
2022-11-27T07:16:56.737Z,17.00
2022-11-27T07:17:56.715Z,17.40
2022-11-27T07:18:56.674Z,16.10
2022-11-27T07:19:56.632Z,15.50
2022-11-27T07:20:56.953Z,18.40
2022-11-27T07:21:56.619Z,15.70
2022-11-27T07:22:56.642Z,15.20
2022-11-27T07:23:56.633Z,16.50
2022-11-27T07:24:56.579Z,16.40
2022-11-27T07:25:56.583Z,17.80
2022-11-27T07:26:56.557Z,16.70
2022-11-27T07:27:56.548Z,18.10
2022-11-27T07:28:56.567Z,17.00
2022-11-27T07:29:56.538Z,15.10
2022-11-27T07:30:56.507Z,15.70
2022-11-27T07:31:56.596Z,15.10
2022-11-27T07:32:56.475Z,16.10
2022-11-27T07:33:56.610Z,13.20
2022-11-27T07:34:56.464Z,17.80
2022-11-27T07:35:56.495Z,16.30
2022-11-27T07:36:56.439Z,15.30
2022-11-27T07:37:56.446Z,14.80
2022-11-27T07:38:56.473Z,14.70
2022-11-27T07:40:04.735Z,15.90
2022-11-27T07:40:56.406Z,17.70
2022-11-27T07:41:59.814Z,14.50
2022-11-27T07:42:56.373Z,15.80
2022-11-27T07:43:56.412Z,15.30
2022-11-27T07:44:56.411Z,16.10
2022-11-27T07:45:56.413Z,13.60
2022-11-27T07:46:56.338Z,15.90
2022-11-27T07:47:56.372Z,14.60
2022-11-27T07:48:56.298Z,14.00
2022-11-27T07:49:56.337Z,15.60
2022-11-27T07:50:56.321Z,17.30
2022-11-27T07:51:56.294Z,17.10
2022-11-27T07:52:56.282Z,14.40
2022-11-27T07:53:56.269Z,15.50
2022-11-27T07:54:56.572Z,16.70
2022-11-27T07:55:56.258Z,15.60
2022-11-27T07:56:56.219Z,14.20
2022-11-27T07:57:56.241Z,13.80
2022-11-27T07:58:56.237Z,14.40
2022-11-27T07:59:56.245Z,13.40
2022-11-27T08:00:56.238Z,15.30
2022-11-27T08:01:56.290Z,13.90
2022-11-27T08:02:56.144Z,14.00
2022-11-27T08:03:56.175Z,12.50
2022-11-27T08:04:56.236Z,13.90
2022-11-27T08:05:56.144Z,15.20
2022-11-27T08:06:56.156Z,14.70
2022-11-27T08:07:56.339Z,15.30
2022-11-27T08:08:56.176Z,14.60
2022-11-27T08:09:56.099Z,13.10
2022-11-27T08:10:56.079Z,15.60
2022-11-27T08:11:56.980Z,12.30
2022-11-27T08:12:56.075Z,12.10
2022-11-27T08:13:56.035Z,14.70
2022-11-27T08:14:56.027Z,14.50
2022-11-27T08:15:56.112Z,16.10
2022-11-27T08:16:56.265Z,11.60
2022-11-27T08:17:55.995Z,14.30
2022-11-27T08:18:55.979Z,14.40
2022-11-27T08:19:56.228Z,15.10
2022-11-27T08:20:55.964Z,13.40
2022-11-27T08:21:56.007Z,13.50
2022-11-27T08:23:01.131Z,13.20
2022-11-27T08:23:55.937Z,12.80
2022-11-27T08:24:55.909Z,13.20
2022-11-27T08:25:55.946Z,13.60
2022-11-27T08:26:56.059Z,14.30
2022-11-27T08:27:55.864Z,11.70
2022-11-27T08:28:55.860Z,13.80
2022-11-27T08:29:55.843Z,16.50
2022-11-27T08:30:55.891Z,14.20
2022-11-27T08:31:55.882Z,14.60
2022-11-27T08:32:55.862Z,11.90
2022-11-27T08:33:55.820Z,12.70
2022-11-27T08:34:56.625Z,13.80
2022-11-27T08:35:55.849Z,13.20
2022-11-27T08:36:55.862Z,14.50
2022-11-27T08:37:55.767Z,14.60
2022-11-27T08:38:55.985Z,13.20
2022-11-27T08:39:55.729Z,12.50
2022-11-27T08:40:55.855Z,10.60
2022-11-27T08:41:55.823Z,11.70
2022-11-27T08:42:55.815Z,13.60
2022-11-27T08:43:55.772Z,14.00
2022-11-27T08:44:55.956Z,12.70
2022-11-27T08:45:56.016Z,12.10
2022-11-27T08:46:55.854Z,13.90
2022-11-27T08:47:55.959Z,11.90
2022-11-27T08:48:56.132Z,15.50
2022-11-27T08:49:55.936Z,12.60
2022-11-27T08:50:55.786Z,12.10
2022-11-27T08:51:55.826Z,13.00
2022-11-27T08:52:55.603Z,13.70
2022-11-27T08:53:55.761Z,11.80
2022-11-27T08:54:57.710Z,12.00
2022-11-27T08:55:55.596Z,14.10
2022-11-27T08:56:55.554Z,12.50
2022-11-27T08:57:56.098Z,11.50
2022-11-27T08:58:55.585Z,11.80
2022-11-27T08:59:55.539Z,11.80
2022-11-27T09:00:55.582Z,12.80
2022-11-27T09:01:55.549Z,13.30
2022-11-27T09:02:55.492Z,11.90
2022-11-27T09:03:55.639Z,14.00
2022-11-27T09:04:55.467Z,11.60
2022-11-27T09:05:55.488Z,12.10
2022-11-27T09:06:58.757Z,12.00
2022-11-27T09:07:55.518Z,11.70
2022-11-27T09:08:55.480Z,13.80
2022-11-27T09:09:55.425Z,12.40
2022-11-27T09:10:55.529Z,13.30
2022-11-27T09:11:56.095Z,10.90
2022-11-27T09:12:55.388Z,11.50
2022-11-27T09:13:55.408Z,11.70
2022-11-27T09:14:55.428Z,10.90
2022-11-27T09:15:55.326Z,11.10
2022-11-27T09:16:55.566Z,11.80
2022-11-27T09:17:55.320Z,10.50
2022-11-27T09:18:55.331Z,13.00
2022-11-27T09:19:57.134Z,13.60
2022-11-27T09:20:55.351Z,13.10
2022-11-27T09:21:55.261Z,13.30
2022-11-27T09:22:55.527Z,11.90
2022-11-27T09:23:55.363Z,12.70
2022-11-27T09:24:55.255Z,11.70
2022-11-27T09:25:55.299Z,11.60
2022-11-27T09:26:55.235Z,11.00
2022-11-27T09:27:55.209Z,10.10
2022-11-27T09:28:55.224Z,11.40
2022-11-27T09:29:55.171Z,11.50
2022-11-27T09:30:55.226Z,12.80
2022-11-27T09:31:55.199Z,12.20
2022-11-27T09:32:55.209Z,12.10
2022-11-27T09:33:55.154Z,12.20
2022-11-27T09:34:55.162Z,11.30
2022-11-27T09:35:55.122Z,12.20
2022-11-27T09:36:55.124Z,12.30
2022-11-27T09:37:55.590Z,13.90
2022-11-27T09:38:55.166Z,12.90
2022-11-27T09:39:55.604Z,12.40
2022-11-27T09:40:59.209Z,11.90
2022-11-27T09:41:55.109Z,10.80
2022-11-27T09:42:55.114Z,11.60
2022-11-27T09:43:55.020Z,11.20
2022-11-27T09:44:55.207Z,11.10
2022-11-27T09:45:55.232Z,11.60
2022-11-27T09:46:55.113Z,11.00
2022-11-27T09:47:54.980Z,11.70
2022-11-27T09:48:55.015Z,11.20
2022-11-27T09:49:54.957Z,12.20
2022-11-27T09:50:55.059Z,11.10
2022-11-27T09:51:55.016Z,11.20
2022-11-27T09:52:54.975Z,13.40
2022-11-27T09:53:54.935Z,10.70
2022-11-27T09:54:54.960Z,10.20
2022-11-27T09:55:55.590Z,13.30
2022-11-27T09:56:54.892Z,10.90
2022-11-27T09:57:54.844Z,10.80
2022-11-27T09:58:54.876Z,11.40
2022-11-27T09:59:54.903Z,11.30
2022-11-27T10:00:54.868Z,14.60
2022-11-27T10:01:54.986Z,12.90
2022-11-27T10:02:54.994Z,11.20
2022-11-27T10:03:54.786Z,10.00
2022-11-27T10:05:54.805Z,11.10
2022-11-27T10:06:54.784Z,10.20
2022-11-27T10:07:55.259Z,11.50
2022-11-27T10:08:54.767Z,13.00
2022-11-27T10:09:54.823Z,12.40
2022-11-27T10:10:54.726Z,11.30
2022-11-27T10:11:54.703Z,11.70
2022-11-27T10:12:54.949Z,10.60
2022-11-27T10:13:54.686Z,10.60
2022-11-27T10:14:54.693Z,12.30
2022-11-27T10:15:54.740Z,11.00
2022-11-27T10:16:54.851Z,11.80
2022-11-27T10:17:54.638Z,12.40
2022-11-27T10:18:54.664Z,13.50
2022-11-27T10:19:54.623Z,11.10
2022-11-27T10:20:54.655Z,11.70
2022-11-27T10:21:54.594Z,11.40
2022-11-27T10:22:54.643Z,13.60
2022-11-27T10:23:54.595Z,11.20
2022-11-27T10:24:54.651Z,12.10
2022-11-27T10:25:54.657Z,10.80
2022-11-27T10:26:54.551Z,12.10
2022-11-27T10:27:54.559Z,12.60
2022-11-27T10:28:54.509Z,13.10
2022-11-27T10:29:54.515Z,12.00
2022-11-27T10:30:54.518Z,11.70
2022-11-27T10:31:54.549Z,12.80
2022-11-27T10:32:55.774Z,12.70
2022-11-27T10:33:54.488Z,10.50
2022-11-27T10:34:54.531Z,10.20
2022-11-27T10:35:54.423Z,11.80
2022-11-27T10:36:54.441Z,9.90
2022-11-27T10:37:54.725Z,11.30
2022-11-27T10:38:54.444Z,14.00
2022-11-27T10:39:54.371Z,12.60
2022-11-27T10:41:00.553Z,12.10
2022-11-27T10:41:54.369Z,11.20
2022-11-27T10:42:54.381Z,11.20
2022-11-27T10:43:54.365Z,13.20
2022-11-27T10:44:54.365Z,11.80
2022-11-27T10:45:54.422Z,10.10
2022-11-27T10:46:54.304Z,10.50
2022-11-27T10:47:54.335Z,11.30
2022-11-27T10:48:54.461Z,10.30
2022-11-27T10:49:54.271Z,11.10
2022-11-27T10:50:54.281Z,10.00
2022-11-27T10:51:54.246Z,9.60
2022-11-27T10:52:54.558Z,11.00
2022-11-27T10:53:54.285Z,11.40
2022-11-27T10:54:54.283Z,10.20
2022-11-27T10:55:55.267Z,11.90
2022-11-27T10:56:54.195Z,11.10
2022-11-27T10:57:54.261Z,11.60
2022-11-27T10:58:54.213Z,11.30
2022-11-27T10:59:54.305Z,10.40
2022-11-27T11:00:54.288Z,9.50
2022-11-27T11:01:54.219Z,11.80
2022-11-27T11:02:54.168Z,10.10
2022-11-27T11:03:54.187Z,9.90
2022-11-27T11:05:16.319Z,9.80
2022-11-27T11:06:20.916Z,10.80
2022-11-27T11:06:54.091Z,10.30
2022-11-27T11:07:54.164Z,10.90
2022-11-27T11:08:58.514Z,9.40
2022-11-27T11:09:54.069Z,11.60
2022-11-27T11:10:54.081Z,11.20
2022-11-27T11:11:54.070Z,12.50
2022-11-27T11:12:54.940Z,11.20
2022-11-27T11:13:54.058Z,11.40
2022-11-27T11:14:53.987Z,11.20
2022-11-27T11:15:54.921Z,10.40
2022-11-27T11:16:54.134Z,9.90
2022-11-27T11:17:53.945Z,10.60
2022-11-27T11:18:53.953Z,13.40
2022-11-27T11:19:54.434Z,12.60
2022-11-27T11:20:53.931Z,11.00
2022-11-27T11:21:54.960Z,12.80
2022-11-27T11:22:53.927Z,10.20
2022-11-27T11:23:53.953Z,9.90
2022-11-27T11:24:53.986Z,10.30
2022-11-27T11:25:53.957Z,12.60
2022-11-27T11:26:53.933Z,11.10
2022-11-27T11:27:53.854Z,10.60
2022-11-27T11:28:53.877Z,11.70
2022-11-27T11:29:53.884Z,10.40
2022-11-27T11:30:53.834Z,13.40
2022-11-27T11:31:53.859Z,12.50
2022-11-27T11:32:53.922Z,12.30
2022-11-27T11:33:54.111Z,13.00
2022-11-27T11:34:59.223Z,12.20
2022-11-27T11:35:53.937Z,13.30
2022-11-27T11:36:53.859Z,13.40
2022-11-27T11:37:53.971Z,12.60
2022-11-27T11:38:53.738Z,12.40
2022-11-27T11:39:53.978Z,13.60
2022-11-27T11:40:53.796Z,13.10
2022-11-27T11:41:53.738Z,12.00
2022-11-27T11:42:53.823Z,13.10
2022-11-27T11:43:53.697Z,12.80
2022-11-27T11:44:53.697Z,11.00
2022-11-27T11:45:53.721Z,13.80
2022-11-27T11:46:53.686Z,12.90
2022-11-27T11:47:53.611Z,13.20
2022-11-27T11:48:53.634Z,11.20
2022-11-27T11:49:53.671Z,12.60
2022-11-27T11:50:53.617Z,13.50
2022-11-27T11:51:53.579Z,12.30
2022-11-27T11:52:53.562Z,12.60
2022-11-27T11:53:53.539Z,12.70
2022-11-27T11:54:53.532Z,11.40
2022-11-27T11:55:53.705Z,14.70
2022-11-27T11:56:53.587Z,12.10
2022-11-27T11:57:53.644Z,13.10
2022-11-27T11:58:53.542Z,12.50
2022-11-27T11:59:53.649Z,14.20
2022-11-27T12:01:19.256Z,13.70
2022-11-27T12:01:53.652Z,12.10
2022-11-27T12:02:53.542Z,14.60
2022-11-27T12:03:53.447Z,14.00
2022-11-27T12:04:53.468Z,13.30
2022-11-27T12:05:53.680Z,13.90
2022-11-27T12:06:53.561Z,14.80
2022-11-27T12:07:53.509Z,13.50
2022-11-27T12:08:53.386Z,15.00
2022-11-27T12:09:53.452Z,13.70
2022-11-27T12:10:53.448Z,16.70
2022-11-27T12:11:53.367Z,14.60
2022-11-27T12:12:53.345Z,12.70
2022-11-27T12:13:53.383Z,14.80
2022-11-27T12:14:53.312Z,13.10
2022-11-27T12:15:53.367Z,11.60
2022-11-27T12:16:54.121Z,12.60
2022-11-27T12:17:53.271Z,13.00
2022-11-27T12:18:53.249Z,13.00
2022-11-27T12:19:53.293Z,13.30
2022-11-27T12:20:53.331Z,14.50
2022-11-27T12:21:54.236Z,12.80
2022-11-27T12:22:53.274Z,15.30
2022-11-27T12:23:53.214Z,14.30
2022-11-27T12:24:53.213Z,14.20
2022-11-27T12:25:53.246Z,14.90
2022-11-27T12:26:53.237Z,14.70
2022-11-27T12:27:53.208Z,14.90
2022-11-27T12:28:58.935Z,14.90
2022-11-27T12:29:53.529Z,16.00
2022-11-27T12:30:53.203Z,14.50
2022-11-27T12:31:53.721Z,13.80
2022-11-27T12:32:53.240Z,14.40
2022-11-27T12:33:53.224Z,13.70
2022-11-27T12:34:53.202Z,13.20
2022-11-27T12:35:53.135Z,13.30
2022-11-27T12:36:53.632Z,14.50
2022-11-27T12:37:53.188Z,12.30
2022-11-27T12:38:54.111Z,12.90
2022-11-27T12:39:53.090Z,11.50
2022-11-27T12:40:53.040Z,14.40
2022-11-27T12:41:53.004Z,13.00
2022-11-27T12:42:53.075Z,12.60
2022-11-27T12:43:53.064Z,13.30
2022-11-27T12:44:53.126Z,12.10
2022-11-27T12:45:53.876Z,11.50
2022-11-27T12:46:53.127Z,13.20
2022-11-27T12:47:53.654Z,13.60
2022-11-27T12:48:53.058Z,11.60
2022-11-27T12:49:52.973Z,12.20
2022-11-27T12:50:53.068Z,10.70
2022-11-27T12:51:54.016Z,15.10
2022-11-27T12:52:53.031Z,11.60